Current Conditions

Updated: 11-Dec-2018 3:14 PM  
Summary / Temperature Wind Rain






Feels like: 54°F

1-hour difference
0.3°F 0.3°F colder than last hour.

24-hour difference
3.1°F3.1°F warmer than yesterday at this time.

  Today Yesterday
High: 54.1°F
2:11 PM
51.7°F
1:04 PM
Low: 47.5°F
4:51 AM
47.9°F
12:00 AM
Calm NW
0.0
Gust:  0.0 mph
0 Beaufort - Calm

Today: 5.8 - 8:23 AM
Month: 12.0 mph - Dec 4
Rain Today: 0.00 in
Current Rate (/hr): 0.000 in
Max Rate (/hr):
Rain Yesterday: 0.00 in
Storm Rain: 0.00 in
This Month: 0.28 in
Season Total: 2.02 in
Last Rain Event: 3 days ago
Humidity / Barometer Sun / Moon
Humidity: 73 Increased 1.0% in the last hour.
Dew Point: 45.3°F Increased 0.1°F in the last hour.
Barometer: 30.185 inHg  
Baro Trend: Steady
Sunrise: 6:57 AM
Sunset: 4:41 PM
Moonrise: 10:22 AM
Moonset: 7:48 PM
Sky Conditions UV Index
Summary: Overcast
Visibility: 8 miles
Clouds: Overcast @ 2,700 ft
KVIS - 2:56 PM PST
Current: 0.0  None 
Tuesday: 1.9  Low 
Wednesday: 2.0  Low 
Air Quality Fire Danger
 Moderate 
Ozone 16 ppb
PM 2.5 15 μg/m3
3:10 PM PST
Current: 2  Low 

Local Alerts Local Forecast
Local NWS Alerts
Today

Partly
Cloudy
High 55
Tonight

Mostly
Cloudy
Low 40
Wed

Partly
Cloudy
High 56
Wed night

Mostly
Clear
Low 37
Thu

Mostly
Sunny
High 59
Thu night

Partly
Cloudy
Low 39
Fri

Mostly
Cloudy
High 61

Local Radar Local Satellite Neighborhood Cam Sky Cam
Local Radar Local Satellite Neighborhood Cam Sky Cam


Nearby Airport Stations

KVIS - Visalia, California, USA
Distance from station: W 14mi, 23km
Updated: Tue, 11-Dec-2018 2:56pm PST
Overcast
Overcast
 Wind from calm
Wind: Calm
Temperature: 54°F , 12°C
Dew Point: 43°F , 6°C
Humidity: 67%
Barometer: 30.19 inHg , 1022.4 hPa
Clouds: Overcast
Visibility: 8 miles , 13 km
Cloud details: Overcast 2700 ft
2018/12/11 22:56 KVIS 112256Z AUTO 00000KT 8SM OVC027 12/06 A3019 RMK AO2 SLP233 T01170056
KPTV - Porterville, California, USA
Distance from station: SSE 19mi, 31km
Updated: Tue, 11-Dec-2018 2:56pm PST
Overcast
Overcast
 Wind from NW
Wind: NW 6 mph , 9 km/h
Temperature: 54°F , 12°C
Dew Point: 45°F , 7°C
Humidity: 72%
Barometer: 30.19 inHg , 1022.4 hPa
Clouds: Overcast
Visibility: 10 miles , 16 km
Cloud details: Overcast 2800 ft
2018/12/11 22:56 KPTV 112256Z AUTO 32005KT 10SM OVC028 12/07 A3019 RMK AO2 SLP239 T01220067

Metar display script from Saratoga-Weather.org



Visitor Map